Time;durP1;ratioP1;P1;durP2;ratioP2;P2;SDS_P1;SDS_P2;PMS_P1;PMS_P2;Temp;Humidity;BMP_temperature;BMP_pressure;BME280_temperature;BME280_humidity;BME280_pressure;Samples;Min_cycle;Max_cycle;Signal;HPM_P1;HPM_P2
2021/07/03 00:03:08;;;;;;;2.97;2.72;;;;;;;14.38;85.62;96409.41;5139973;57;20621;-68
2021/07/03 00:08:11;;;;;;;9.00;3.30;;;;;;;14.26;86.71;96406.97;5140043;57;20121;-68
2021/07/03 00:13:13;;;;;;;3.92;3.55;;;;;;;14.34;86.17;96410.88;5139867;57;20243;-67
2021/07/03 00:18:16;;;;;;;3.22;2.88;;;;;;;14.26;86.06;96407.72;5131078;57;20152;-68
2021/07/03 00:23:18;;;;;;;3.60;3.00;;;;;;;14.04;86.71;96409.41;5139959;57;20130;-68
2021/07/03 00:28:21;;;;;;;3.50;3.20;;;;;;;13.97;87.43;96402.25;5139386;57;20623;-68
2021/07/03 00:33:23;;;;;;;3.47;3.17;;;;;;;14.01;87.17;96397.25;5139760;57;20135;-68
2021/07/03 00:38:26;;;;;;;4.15;3.17;;;;;;;14.00;86.63;96397.75;5139159;57;20126;-69
2021/07/03 00:43:28;;;;;;;4.30;3.13;;;;;;;13.82;86.79;96384.09;5139527;57;20122;-67
2021/07/03 00:48:31;;;;;;;6.65;3.22;;;;;;;13.93;87.06;96382.22;5139166;57;20135;-68
2021/07/03 00:53:33;;;;;;;3.50;3.13;;;;;;;13.68;87.39;96388.44;5139342;57;20639;-68
2021/07/03 00:58:36;;;;;;;3.95;2.97;;;;;;;13.61;88.15;96386.78;5139212;57;20130;-67
2021/07/03 01:03:38;;;;;;;4.20;3.10;;;;;;;13.57;88.29;96388.22;5145792;57;20587;-69
2021/07/03 01:08:40;;;;;;;3.63;3.00;;;;;;;13.44;88.68;96385.75;5163061;57;20235;-69
2021/07/03 01:13:43;;;;;;;4.93;3.35;;;;;;;13.46;88.95;96382.50;5147403;57;20139;-68
2021/07/03 01:18:46;;;;;;;4.82;3.58;;;;;;;13.52;88.84;96388.91;5140032;57;20135;-68
2021/07/03 01:23:48;;;;;;;6.05;3.30;;;;;;;13.53;89.33;96390.44;5139576;57;20135;-68
2021/07/03 01:28:50;;;;;;;4.07;3.30;;;;;;;13.64;89.04;96398.94;5139103;57;20117;-67
2021/07/03 01:33:53;;;;;;;6.32;3.80;;;;;;;13.65;88.83;96395.69;5138909;57;20613;-67
2021/07/03 01:38:55;;;;;;;3.50;3.20;;;;;;;13.68;89.23;96396.75;5138979;57;20138;-68
2021/07/03 01:43:58;;;;;;;3.15;2.85;;;;;;;13.67;88.96;96389.66;5138766;57;20583;-67
2021/07/03 01:49:05;;;;;;;3.90;3.17;;;;;;;13.57;89.32;96393.78;5138410;57;20144;-69
2021/07/03 01:54:08;;;;;;;3.22;2.95;;;;;;;13.42;89.29;96384.69;5141530;57;20131;-67
2021/07/03 01:59:11;;;;;;;3.40;3.10;;;;;;;13.36;89.30;96383.84;5141914;57;20134;-68
2021/07/03 02:04:14;;;;;;;3.78;3.25;;;;;;;13.34;89.54;96375.97;5141767;57;20125;-68
2021/07/03 02:09:17;;;;;;;3.67;3.28;;;;;;;13.30;89.40;96380.97;5141327;57;20658;-68
2021/07/03 02:14:19;;;;;;;3.67;3.28;;;;;;;13.16;89.97;96383.75;5141687;57;20135;-67
2021/07/03 02:19:21;;;;;;;5.82;3.20;;;;;;;13.18;89.62;96375.72;5141355;57;20125;-68
2021/07/03 02:24:24;;;;;;;3.92;3.28;;;;;;;12.87;89.11;96374.13;5141414;57;20130;-68
2021/07/03 02:29:26;;;;;;;4.45;3.28;;;;;;;12.74;90.17;96376.38;5141221;57;20139;-68
2021/07/03 02:34:29;;;;;;;4.45;3.45;;;;;;;12.67;90.00;96376.75;5141350;57;20607;-69
2021/07/03 02:39:31;;;;;;;4.72;3.00;;;;;;;12.62;90.17;96371.84;5140895;57;20138;-68
2021/07/03 02:44:34;;;;;;;4.57;3.47;;;;;;;12.61;90.35;96378.66;5140873;57;20139;-69
2021/07/03 02:49:36;;;;;;;4.60;3.47;;;;;;;12.57;90.36;96380.84;5141097;57;20130;-68
2021/07/03 02:54:39;;;;;;;3.80;3.40;;;;;;;12.59;90.04;96386.69;5141228;57;20143;-68
2021/07/03 02:59:41;;;;;;;3.40;3.10;;;;;;;12.59;90.27;96385.91;5140780;57;20122;-68
2021/07/03 03:04:44;;;;;;;7.30;3.38;;;;;;;12.53;90.02;96385.78;5140141;57;20139;-68
2021/07/03 03:09:46;;;;;;;3.38;3.08;;;;;;;12.38;89.62;96381.44;5141068;57;20130;-68
2021/07/03 03:14:48;;;;;;;4.20;3.22;;;;;;;12.28;89.75;96388.31;5140885;57;20125;-68
2021/07/03 03:19:51;;;;;;;4.97;2.97;;;;;;;12.23;90.33;96390.47;5140721;57;20139;-67
2021/07/03 03:24:53;;;;;;;3.42;3.13;;;;;;;12.32;89.73;96395.19;5140418;57;20604;-68
2021/07/03 03:29:56;;;;;;;6.55;2.65;;;;;;;12.28;90.06;96388.31;5140409;57;20125;-68
2021/07/03 03:34:58;;;;;;;6.20;3.00;;;;;;;12.23;90.85;96398.03;5140263;57;20130;-68
2021/07/03 03:40:00;;;;;;;5.40;3.58;;;;;;;12.33;90.12;96390.41;5140658;57;20130;-67
2021/07/03 03:45:05;;;;;;;3.17;2.88;;;;;;;12.26;89.66;96388.75;5140170;57;20809;-67
2021/07/03 03:50:08;;;;;;;3.22;2.95;;;;;;;12.26;89.99;96401.88;5140255;57;20233;-68
2021/07/03 03:55:11;;;;;;;4.35;3.28;;;;;;;12.32;89.63;96392.44;5140007;57;20227;-67
2021/07/03 04:00:14;;;;;;;7.63;3.75;;;;;;;12.56;89.50;96398.72;5140076;57;20141;-68
2021/07/03 04:05:17;;;;;;;4.47;3.28;;;;;;;12.65;89.40;96395.09;5140106;57;20125;-68
2021/07/03 04:10:19;;;;;;;5.15;3.13;;;;;;;12.85;89.05;96392.47;5140001;57;20146;-68
2021/07/03 04:15:22;;;;;;;6.78;3.80;;;;;;;13.11;88.00;96392.72;5131036;57;20241;-68
2021/07/03 04:20:24;;;;;;;4.63;3.85;;;;;;;13.29;87.80;96395.31;5139825;57;20142;-68
2021/07/03 04:25:27;;;;;;;5.50;3.95;;;;;;;13.43;87.46;96395.31;5139410;57;20126;-68
2021/07/03 04:30:29;;;;;;;7.53;4.35;;;;;;;13.73;86.75;96412.72;5139736;57;20547;-68
2021/07/03 04:35:32;;;;;;;4.10;3.45;;;;;;;14.01;86.06;96411.16;5139655;57;20672;-68
2021/07/03 04:40:34;;;;;;;5.60;3.80;;;;;;;14.24;85.60;96415.78;5139530;57;20121;-68
2021/07/03 04:45:37;;;;;;;7.45;4.03;;;;;;;14.43;85.55;96413.53;5139196;57;20151;-67
2021/07/03 04:50:39;;;;;;;6.25;4.70;;;;;;;14.46;86.58;96395.09;5139392;57;20144;-68
2021/07/03 04:55:41;;;;;;;4.45;4.00;;;;;;;14.85;85.99;96393.56;5139458;57;20178;-67
2021/07/03 05:00:44;;;;;;;6.90;4.60;;;;;;;14.85;86.48;96376.88;5139286;57;20240;-69
2021/07/03 05:05:46;;;;;;;4.95;4.03;;;;;;;14.99;86.62;96376.78;5138959;57;20122;-69
2021/07/03 05:10:48;;;;;;;6.57;4.80;;;;;;;15.11;86.02;96374.88;5130517;57;20117;-69
2021/07/03 05:15:52;;;;;;;7.32;4.97;;;;;;;15.15;87.00;96375.44;5138470;57;20707;-69
2021/07/03 05:20:55;;;;;;;5.75;4.53;;;;;;;15.07;86.63;96380.66;5138997;57;20121;-68
2021/07/03 05:25:57;;;;;;;5.03;4.35;;;;;;;15.05;87.00;96376.84;5138588;57;20253;-68
2021/07/03 05:31:00;;;;;;;6.63;4.97;;;;;;;15.10;87.04;96378.94;5138972;57;20591;-69
2021/07/03 05:36:03;;;;;;;7.40;5.45;;;;;;;15.29;85.57;96379.38;5138544;57;20134;-69
2021/07/03 05:41:05;;;;;;;12.10;6.30;;;;;;;15.45;83.04;96385.09;5138872;57;20135;-68
2021/07/03 05:46:08;;;;;;;7.28;5.55;;;;;;;15.75;81.69;96391.97;5138419;57;20126;-70
2021/07/03 05:51:12;;;;;;;8.15;5.75;;;;;;;16.13;81.17;96395.50;5151041;57;20117;-68
2021/07/03 05:56:15;;;;;;;6.75;5.38;;;;;;;16.32;80.83;96391.84;5157923;57;20135;-67
2021/07/03 06:01:17;;;;;;;8.25;6.25;;;;;;;16.61;81.52;96384.38;5140671;57;20135;-67
2021/07/03 06:06:20;;;;;;;7.05;5.57;;;;;;;16.95;79.80;96381.22;5138376;57;20126;-68
2021/07/03 06:11:22;;;;;;;8.00;5.95;;;;;;;17.09;76.14;96390.66;5138255;57;20583;-67
2021/07/03 06:16:24;;;;;;;8.70;5.85;;;;;;;17.25;76.00;96397.56;5138113;57;20275;-69
2021/07/03 06:21:27;;;;;;;6.93;5.50;;;;;;;17.52;73.06;96392.03;5129556;57;20690;-69
2021/07/03 06:26:30;;;;;;;6.85;5.68;;;;;;;17.64;72.53;96384.44;5138128;57;20221;-68
2021/07/03 06:31:32;;;;;;;9.75;5.43;;;;;;;17.89;72.14;96377.81;5138027;57;20175;-68
2021/07/03 06:36:34;;;;;;;7.03;5.40;;;;;;;18.06;71.99;96378.56;5129547;57;20130;-68
2021/07/03 06:41:37;;;;;;;6.80;5.50;;;;;;;18.34;70.35;96376.47;5141137;57;20131;-68
2021/07/03 06:46:39;;;;;;;6.90;5.38;;;;;;;18.51;71.89;96377.22;5140934;57;20135;-67
2021/07/03 06:51:42;;;;;;;7.28;5.22;;;;;;;18.77;71.55;96382.44;5141438;57;20126;-68
2021/07/03 06:56:44;;;;;;;7.28;5.22;;;;;;;18.82;69.10;96383.72;5140737;57;20157;-67
2021/07/03 07:01:47;;;;;;;6.70;4.78;;;;;;;18.87;66.75;96374.53;5141295;57;20126;-68
2021/07/03 07:06:56;;;;;;;5.30;4.38;;;;;;;19.35;61.98;96377.63;5140630;57;20595;-67
2021/07/03 07:11:59;;;;;;;6.03;4.18;;;;;;;19.59;64.62;96372.09;5141191;57;20584;-68
2021/07/03 07:17:01;;;;;;;4.68;4.25;;;;;;;19.91;62.66;96369.53;5140816;57;20135;-68
2021/07/03 07:22:04;;;;;;;8.48;4.45;;;;;;;19.93;59.30;96376.16;5141138;57;20183;-67
2021/07/03 07:27:07;;;;;;;5.25;4.43;;;;;;;19.92;60.33;96371.06;5140274;57;20135;-68
2021/07/03 07:32:09;;;;;;;6.07;4.55;;;;;;;20.12;59.07;96364.25;5140497;57;20130;-69
2021/07/03 07:37:12;;;;;;;5.18;4.05;;;;;;;20.31;60.23;96359.50;5140181;57;20157;-68
2021/07/03 07:42:14;;;;;;;5.10;4.18;;;;;;;20.75;58.29;96353.38;5140402;57;20140;-68
2021/07/03 07:47:16;;;;;;;6.18;4.75;;;;;;;21.11;60.21;96346.28;5140005;57;20148;-68
2021/07/03 07:52:19;;;;;;;4.90;4.40;;;;;;;21.38;60.34;96339.50;5140313;57;20243;-68
2021/07/03 07:57:21;;;;;;;4.60;4.18;;;;;;;22.44;51.15;96334.91;5140388;57;20152;-68
2021/07/03 08:02:24;;;;;;;5.15;4.32;;;;;;;23.99;50.25;96320.22;5139982;57;20113;-68
2021/07/03 08:07:26;;;;;;;5.13;4.25;;;;;;;23.62;47.52;96315.72;5151756;57;20134;-70
2021/07/03 08:12:28;;;;;;;4.45;3.85;;;;;;;24.71;47.40;96333.16;5160526;57;20138;-70
2021/07/03 08:17:31;;;;;;;4.30;3.90;;;;;;;24.68;45.31;96339.94;5159700;57;20616;-69
2021/07/03 08:22:34;;;;;;;5.07;3.95;;;;;;;24.86;43.98;96341.75;5160215;57;20173;-69
2021/07/03 08:27:36;;;;;;;7.30;3.92;;;;;;;24.69;47.49;96329.38;5159507;57;20667;-70
2021/07/03 08:32:39;;;;;;;4.25;3.85;;;;;;;25.30;43.07;96327.59;5159861;57;20174;-71
2021/07/03 08:37:42;;;;;;;4.03;3.72;;;;;;;26.29;40.06;96304.56;5158356;57;20215;-71
2021/07/03 08:42:46;;;;;;;5.25;4.13;;;;;;;26.42;40.38;96312.09;5159577;57;20120;-70
2021/07/03 08:47:48;;;;;;;5.45;3.85;;;;;;;25.68;39.29;96303.00;5159411;57;20664;-70
2021/07/03 08:52:51;;;;;;;4.60;4.10;;;;;;;25.47;41.27;96302.41;5145543;57;20219;-76
2021/07/03 08:57:59;;;;;;;4.03;3.70;;;;;;;26.87;42.33;96291.41;5137105;57;20620;-76
2021/07/03 09:03:19;;;;;;;5.93;3.47;;;;;;;27.83;40.82;96301.31;5139436;57;20254;-76
2021/07/03 09:08:24;;;;;;;3.65;3.35;;;;;;;28.29;39.20;96302.50;5139149;57;20223;-76
2021/07/03 09:13:27;;;;;;;3.72;3.42;;;;;;;28.09;35.13;96293.00;5139104;57;20672;-76
2021/07/03 09:18:30;;;;;;;4.97;3.58;;;;;;;27.54;36.65;96303.78;5138425;57;20187;-76
2021/07/03 09:23:38;;;;;;;3.55;3.25;;;;;;;27.78;38.26;96290.94;5137755;57;20130;-77
2021/07/03 09:28:44;;;;;;;4.50;3.75;;;;;;;27.41;34.82;96304.06;5121849;57;20765;-76
2021/07/03 09:33:47;;;;;;;3.33;3.10;;;;;;;28.96;33.41;96291.75;5138349;57;20239;-75
2021/07/03 09:38:52;;;;;;;3.63;3.22;;;;;;;28.81;32.31;96281.31;5136334;57;20147;-77
2021/07/03 09:43:56;;;;;;;5.28;3.72;;;;;;;28.66;33.24;96281.47;5137898;57;20134;-75
2021/07/03 09:49:02;;;;;;;4.03;3.63;;;;;;;28.35;32.13;96288.78;5134090;57;20130;-74
2021/07/03 09:54:07;;;;;;;3.95;3.65;;;;;;;28.28;37.50;96281.84;5135205;57;20257;-77
2021/07/03 09:59:10;;;;;;;3.80;3.50;;;;;;;28.10;37.29;96280.31;5136702;57;20121;-77
2021/07/03 10:04:12;;;;;;;3.83;3.42;;;;;;;29.42;36.66;96272.81;5137080;57;20508;-76
2021/07/03 10:09:27;;;;;;;4.05;3.70;;;;;;;29.75;33.90;96276.88;5128566;57;20144;-76
2021/07/03 10:14:36;;;;;;;3.72;3.42;;;;;;;29.64;34.60;96277.41;5136045;57;20117;-75
2021/07/03 10:19:40;;;;;;;4.20;2.95;;;;;;;30.06;31.99;96273.53;5133952;57;20117;-75
2021/07/03 10:24:48;;;;;;;5.32;3.42;;;;;;;29.21;32.37;96269.66;5136169;57;20134;-76
2021/07/03 10:29:53;;;;;;;3.60;3.30;;;;;;;29.51;32.59;96263.56;5137751;57;20121;-75
2021/07/03 10:35:10;;;;;;;3.50;3.20;;;;;;;29.05;34.67;96259.78;5137759;57;20130;-75
2021/07/03 10:40:15;;;;;;;4.13;3.17;;;;;;;29.86;30.24;96254.88;5138971;57;20130;-77
2021/07/03 10:45:24;;;;;;;3.78;3.45;;;;;;;28.62;31.85;96244.19;5148482;57;20126;-76
2021/07/03 10:50:29;;;;;;;3.30;3.08;;;;;;;30.09;34.33;96235.31;5165331;57;20237;-76
2021/07/03 10:55:37;;;;;;;3.88;3.20;;;;;;;30.66;32.87;96234.66;5143842;57;20156;-75
2021/07/03 11:00:39;;;;;;;;;;;;;;;29.34;33.70;96235.13;5141715;57;20881;-75
2021/07/03 11:05:42;;;;;;;5.07;3.53;;;;;;;27.99;32.25;96223.19;5139013;57;19981;-77
2021/07/03 11:11:07;;;;;;;3.45;3.15;;;;;;;28.01;34.28;96220.53;5133646;57;20654;-74
2021/07/03 11:16:11;;;;;;;3.45;3.15;;;;;;;28.49;37.97;96218.16;5138975;57;20118;-73
2021/07/03 11:21:15;;;;;;;3.75;2.80;;;;;;;29.45;31.22;96216.75;5137212;57;20194;-74
2021/07/03 11:26:18;;;;;;;4.63;3.10;;;;;;;29.03;32.48;96214.84;5133983;57;20144;-72
2021/07/03 11:31:21;;;;;;;3.38;3.13;;;;;;;28.20;30.86;96209.38;5135571;57;20130;-72
2021/07/03 11:36:23;;;;;;;3.75;3.45;;;;;;;28.24;33.62;96204.78;5135054;57;20182;-72
2021/07/03 11:41:27;;;;;;;3.97;2.92;;;;;;;28.35;34.38;96198.59;5138101;57;20131;-72
2021/07/03 11:46:30;;;;;;;4.10;3.25;;;;;;;28.49;35.37;96192.56;5139609;57;20117;-71
2021/07/03 11:51:33;;;;;;;4.25;3.85;;;;;;;27.39;34.84;96193.94;5136963;57;20215;-71
2021/07/03 11:56:35;;;;;;;3.50;3.20;;;;;;;28.94;34.80;96189.94;5139448;57;20278;-71
2021/07/03 12:01:38;;;;;;;3.38;3.08;;;;;;;28.17;35.91;96191.41;5139458;57;20698;-71
2021/07/03 12:06:40;;;;;;;4.15;3.67;;;;;;;27.95;34.50;96181.00;5138657;57;20130;-71
2021/07/03 12:11:42;;;;;;;3.15;2.95;;;;;;;27.48;39.76;96176.25;5131158;57;20130;-71
2021/07/03 12:16:54;;;;;;;3.47;2.95;;;;;;;28.68;34.52;96170.72;5139278;57;20139;-71
2021/07/03 12:22:04;;;;;;;2.97;2.70;;;;;;;29.16;33.47;96173.88;5139596;57;20231;-74
2021/07/03 12:27:06;;;;;;;2.90;2.70;;;;;;;29.02;31.98;96162.13;5139278;57;20239;-74
2021/07/03 12:32:12;;;;;;;2.90;2.70;;;;;;;28.41;31.32;96162.13;5139158;57;20690;-75
2021/07/03 12:37:16;;;;;;;2.97;2.70;;;;;;;27.78;31.59;96152.53;5139084;57;20134;-74
2021/07/03 12:42:20;;;;;;;4.25;3.22;;;;;;;27.96;32.34;96148.38;5139928;57;20167;-74
2021/07/03 12:47:23;;;;;;;3.15;2.63;;;;;;;29.19;32.95;96140.66;5139436;57;20139;-74
2021/07/03 12:52:42;;;;;;;4.82;3.00;;;;;;;28.52;36.88;96140.94;5139468;57;20144;-75
2021/07/03 12:57:59;;;;;;;3.53;3.28;;;;;;;28.66;31.87;96141.38;5139305;57;20135;-74
2021/07/03 13:03:03;;;;;;;3.17;2.83;;;;;;;27.49;32.56;96143.72;5138707;57;20130;-74
2021/07/03 13:08:06;;;;;;;2.90;2.70;;;;;;;28.04;34.83;96134.91;5139164;57;20328;-74
2021/07/03 13:13:08;;;;;;;3.22;2.83;;;;;;;28.40;32.00;96134.28;5139572;57;20139;-75
2021/07/03 13:18:11;;;;;;;3.30;3.00;;;;;;;28.24;35.32;96130.88;5139058;57;20579;-75
2021/07/03 13:23:14;;;;;;;3.13;2.85;;;;;;;28.21;32.92;96126.38;5139229;57;20116;-76
2021/07/03 13:28:17;;;;;;;2.85;2.65;;;;;;;28.35;32.62;96124.69;5138760;57;20139;-74
2021/07/03 13:33:19;;;;;;;2.97;2.78;;;;;;;29.27;35.08;96112.81;5138939;57;20121;-74
2021/07/03 13:38:22;;;;;;;2.90;2.70;;;;;;;28.86;33.41;96103.94;5138450;57;20152;-74
2021/07/03 13:43:24;;;;;;;3.22;3.00;;;;;;;27.41;33.55;96108.97;5138647;57;20152;-74
2021/07/03 13:48:27;;;;;;;3.08;2.83;;;;;;;27.46;34.34;96096.63;5137102;57;20126;-73
2021/07/03 13:53:29;;;;;;;2.88;2.67;;;;;;;28.58;33.91;96095.22;5137715;57;20130;-73
2021/07/03 13:58:32;;;;;;;3.85;2.90;;;;;;;29.25;36.79;96090.66;5138160;57;20148;-73
2021/07/03 14:03:35;;;;;;;5.68;2.90;;;;;;;28.24;32.03;96090.34;5131688;57;20237;-72
2021/07/03 14:08:40;;;;;;;2.92;2.72;;;;;;;28.29;34.98;96081.53;5137889;57;20622;-73
2021/07/03 14:13:42;;;;;;;3.00;2.70;;;;;;;28.64;34.55;96070.13;5137383;57;20121;-73
2021/07/03 14:18:44;;;;;;;3.42;2.97;;;;;;;28.33;33.70;96066.91;5138082;57;20672;-75
2021/07/03 14:23:47;;;;;;;2.80;2.60;;;;;;;28.74;32.10;96068.09;5138559;57;20130;-73
2021/07/03 14:28:49;;;;;;;3.13;2.78;;;;;;;28.15;35.49;96066.19;5137894;57;20121;-74
2021/07/03 14:33:52;;;;;;;2.95;2.75;;;;;;;28.93;31.75;96057.56;5138161;57;20117;-73
2021/07/03 14:38:54;;;;;;;3.00;2.80;;;;;;;28.82;30.70;96051.66;5137586;57;20178;-74
2021/07/03 14:43:57;;;;;;;2.53;2.33;;;;;;;27.33;33.29;96047.91;5137476;57;20130;-73
2021/07/03 14:48:59;;;;;;;2.53;2.40;;;;;;;27.36;33.38;96038.25;5136411;57;20159;-74
2021/07/03 14:54:02;;;;;;;3.90;2.53;;;;;;;28.00;31.06;96042.91;5135456;57;20223;-73
2021/07/03 14:59:04;;;;;;;2.70;2.50;;;;;;;26.18;37.86;96032.25;5149209;46;20121;-76
2021/07/03 15:04:06;;;;;;;2.67;2.47;;;;;;;27.64;34.88;96040.63;5155452;57;20138;-74
2021/07/03 15:09:09;;;;;;;3.22;2.40;;;;;;;27.30;33.17;96034.88;5160967;57;20138;-73
2021/07/03 15:14:12;;;;;;;2.65;2.45;;;;;;;26.95;34.15;96022.72;5181228;57;20109;-74
2021/07/03 15:19:14;;;;;;;2.70;2.50;;;;;;;26.58;36.38;96027.28;5165932;57;20143;-74
2021/07/03 15:24:19;;;;;;;2.60;2.25;;;;;;;26.64;34.89;96016.47;5161101;57;20116;-72
2021/07/03 15:29:22;;;;;;;2.90;2.70;;;;;;;25.58;37.00;96022.63;5159086;57;20133;-76
2021/07/03 15:34:24;;;;;;;2.95;2.75;;;;;;;25.58;36.32;96010.56;5158929;57;20112;-74
2021/07/03 15:39:27;;;;;;;3.08;2.88;;;;;;;25.18;38.37;96026.63;5159636;57;20130;-75
2021/07/03 15:44:29;;;;;;;3.75;3.22;;;;;;;25.10;37.38;96025.91;5163538;57;20126;-74
2021/07/03 15:49:32;;;;;;;3.03;2.83;;;;;;;25.16;38.57;96012.31;5163011;57;20133;-74
2021/07/03 15:54:34;;;;;;;2.80;2.55;;;;;;;25.24;37.79;96013.81;5163427;57;20155;-71
2021/07/03 15:59:37;;;;;;;3.00;2.70;;;;;;;25.60;38.98;96010.75;5163121;57;20241;-74
2021/07/03 16:04:40;;;;;;;3.85;3.05;;;;;;;25.43;39.93;96016.25;5162842;57;20120;-72
2021/07/03 16:09:42;;;;;;;3.35;3.05;;;;;;;24.69;40.39;96016.47;5163592;57;20191;-71
2021/07/03 16:14:45;;;;;;;5.95;2.90;;;;;;;25.02;40.79;96014.59;5164472;57;20133;-73
2021/07/03 16:19:47;;;;;;;3.13;2.90;;;;;;;25.75;38.96;96007.88;5163567;57;20138;-71
2021/07/03 16:24:49;;;;;;;3.30;3.00;;;;;;;25.55;39.33;95992.66;5161263;57;20705;-72
2021/07/03 16:29:53;;;;;;;3.42;3.10;;;;;;;25.51;38.71;96000.75;5160299;57;20662;-72
2021/07/03 16:34:55;;;;;;;2.72;2.53;;;;;;;25.68;38.22;95996.56;5159847;57;20827;-73
2021/07/03 16:39:57;;;;;;;3.47;3.17;;;;;;;25.21;39.71;96006.47;5162161;57;20134;-73
2021/07/03 16:45:01;;;;;;;3.25;2.95;;;;;;;25.02;38.55;96005.34;5158338;57;22573;-73
2021/07/03 16:50:04;;;;;;;4.13;2.70;;;;;;;25.63;40.15;96003.94;5157129;57;20111;-73
2021/07/03 16:55:08;;;;;;;3.20;2.90;;;;;;;25.15;39.65;96002.34;5158852;57;20142;-72
2021/07/03 17:00:11;;;;;;;3.47;3.10;;;;;;;25.21;39.37;96006.47;5160248;57;20134;-71
2021/07/03 17:05:13;;;;;;;3.20;2.90;;;;;;;25.08;42.03;95997.44;5159120;57;20230;-71
2021/07/03 17:10:16;;;;;;;3.00;2.80;;;;;;;24.96;40.14;95996.31;5157283;57;20125;-72
2021/07/03 17:15:18;;;;;;;3.00;2.80;;;;;;;25.60;40.13;96007.94;5161461;57;20121;-72
2021/07/03 17:20:21;;;;;;;3.22;2.92;;;;;;;25.26;40.16;96011.16;5161987;57;20125;-72
2021/07/03 17:25:23;;;;;;;3.40;2.80;;;;;;;25.50;42.43;96004.94;5161568;57;20138;-72
2021/07/03 17:30:26;;;;;;;3.55;3.20;;;;;;;25.30;44.46;96005.91;5159921;57;20129;-74
2021/07/03 17:35:28;;;;;;;4.28;2.88;;;;;;;24.95;44.08;96012.53;5152006;57;20595;-72
2021/07/03 17:40:30;;;;;;;3.25;3.00;;;;;;;24.52;46.30;95999.28;5161812;57;20603;-72
2021/07/03 17:45:33;;;;;;;4.10;3.67;;;;;;;24.08;46.51;96001.47;5153161;57;20795;-72
2021/07/03 17:50:36;;;;;;;3.53;3.22;;;;;;;23.63;49.38;96004.09;5161332;57;20134;-72
2021/07/03 17:55:38;;;;;;;3.97;3.55;;;;;;;23.05;51.01;96006.72;5162819;57;20133;-74
2021/07/03 18:00:40;;;;;;;5.25;3.38;;;;;;;23.26;54.78;95996.91;5163291;57;20170;-73
2021/07/03 18:05:43;;;;;;;4.05;3.72;;;;;;;23.13;54.24;95994.22;5163006;57;20126;-76
2021/07/03 18:10:45;;;;;;;4.07;3.53;;;;;;;23.33;56.25;96001.84;5168082;57;20589;-70
2021/07/03 18:15:49;;;;;;;5.35;3.30;;;;;;;23.26;57.00;96002.56;5150804;57;20657;-71
2021/07/03 18:20:52;;;;;;;5.82;3.22;;;;;;;23.08;57.62;96008.44;5158206;57;20147;-72
2021/07/03 18:25:54;;;;;;;4.72;3.67;;;;;;;22.92;58.58;96006.81;5157017;57;20130;-71
2021/07/03 18:30:57;;;;;;;5.97;3.42;;;;;;;22.84;59.25;96001.88;5157404;57;20692;-73
2021/07/03 18:35:59;;;;;;;3.22;3.03;;;;;;;22.65;58.48;95990.09;5158415;57;20134;-71
2021/07/03 18:41:03;;;;;;;5.88;3.53;;;;;;;22.31;61.52;95989.38;5159019;57;20138;-72
2021/07/03 18:46:06;;;;;;;3.63;3.33;;;;;;;22.19;61.83;95996.56;5158613;57;20607;-72
2021/07/03 18:51:08;;;;;;;3.90;3.13;;;;;;;21.87;62.62;95993.25;5160485;57;20223;-72
2021/07/03 18:56:11;;;;;;;3.67;3.38;;;;;;;21.60;66.79;96000.94;5161039;57;20525;-72
2021/07/03 19:01:13;;;;;;;3.50;3.20;;;;;;;21.27;66.98;95993.97;5161302;57;20147;-72
2021/07/03 19:06:16;;;;;;;5.57;3.70;;;;;;;21.09;67.35;95994.84;5161244;57;20125;-74
2021/07/03 19:11:19;;;;;;;4.43;3.50;;;;;;;21.00;68.02;96003.66;5160811;57;20134;-72
2021/07/03 19:16:21;;;;;;;3.85;3.55;;;;;;;20.67;71.10;96002.22;5158465;57;20269;-72
2021/07/03 19:21:24;;;;;;;4.95;3.58;;;;;;;20.34;71.29;96002.00;5159879;57;20185;-70
2021/07/03 19:26:26;;;;;;;3.78;3.40;;;;;;;20.46;70.77;96006.16;5159636;57;20143;-72
2021/07/03 19:31:28;;;;;;;5.95;3.60;;;;;;;20.56;71.50;96005.22;5159517;57;20112;-72
2021/07/03 19:36:32;;;;;;;5.10;3.65;;;;;;;20.46;71.87;96008.97;5160414;57;20134;-72
2021/07/03 19:41:38;;;;;;;3.30;3.08;;;;;;;20.32;73.02;96015.81;5160436;57;20693;-72
2021/07/03 19:46:41;;;;;;;3.75;3.45;;;;;;;20.41;75.16;96021.03;5159847;57;20133;-73
2021/07/03 19:51:43;;;;;;;4.78;3.53;;;;;;;20.29;74.83;96014.06;5160229;57;20720;-73
2021/07/03 19:56:46;;;;;;;4.05;3.42;;;;;;;20.15;76.07;96018.13;5160070;57;20134;-70
2021/07/03 20:01:48;;;;;;;6.72;3.42;;;;;;;19.99;76.94;96023.44;5160081;57;20666;-70
2021/07/03 20:06:51;;;;;;;7.72;4.10;;;;;;;19.97;78.20;96025.25;5160035;57;20138;-71
2021/07/03 20:12:00;;;;;;;3.72;3.42;;;;;;;19.88;75.68;96032.00;5158415;57;20715;-72
2021/07/03 20:17:03;;;;;;;4.50;4.10;;;;;;;19.73;77.19;96034.50;5158333;57;20120;-70
2021/07/03 20:22:05;;;;;;;6.50;4.05;;;;;;;19.55;78.06;96032.44;5161915;57;20120;-70
2021/07/03 20:27:08;;;;;;;4.65;3.92;;;;;;;19.68;79.47;96029.72;5163102;57;20117;-70
2021/07/03 20:32:10;;;;;;;5.95;3.72;;;;;;;19.63;78.94;96044.56;5155131;57;20244;-70
2021/07/03 20:37:13;;;;;;;4.55;3.80;;;;;;;19.82;73.34;96067.78;5162383;57;20138;-71
2021/07/03 20:42:15;;;;;;;5.13;3.95;;;;;;;20.11;68.85;96068.16;5162596;57;20142;-70
2021/07/03 20:47:20;;;;;;;3.95;3.60;;;;;;;19.94;69.15;96077.56;5161876;57;20125;-68
2021/07/03 20:52:22;;;;;;;3.67;3.38;;;;;;;19.79;70.39;96074.44;5161109;57;20134;-71
2021/07/03 20:57:25;;;;;;;6.13;3.40;;;;;;;19.61;71.72;96088.44;5161260;57;20688;-70
2021/07/03 21:02:28;;;;;;;4.60;3.40;;;;;;;19.60;73.37;96087.69;5159836;57;20599;-71
2021/07/03 21:07:30;;;;;;;3.45;3.20;;;;;;;19.44;74.24;96088.63;5159973;57;20129;-71
2021/07/03 21:12:32;;;;;;;3.95;3.30;;;;;;;19.19;75.04;96087.88;5160088;57;20657;-70
2021/07/03 21:17:36;;;;;;;3.97;3.58;;;;;;;18.95;76.92;96093.44;5159857;57;20147;-71
2021/07/03 21:22:38;;;;;;;3.95;3.25;;;;;;;18.83;77.35;96096.88;5159752;57;20134;-70
2021/07/03 21:27:42;;;;;;;5.82;3.35;;;;;;;18.83;77.47;96096.88;5159089;57;20130;-71
2021/07/03 21:32:45;;;;;;;4.15;3.30;;;;;;;18.70;78.09;96085.53;5159241;57;20231;-71
2021/07/03 21:37:49;;;;;;;4.43;3.33;;;;;;;18.64;79.17;96093.97;5158683;57;20129;-72
2021/07/03 21:42:52;;;;;;;3.88;3.58;;;;;;;18.52;79.52;96087.69;5158719;57;20147;-72
2021/07/03 21:47:54;;;;;;;4.00;3.60;;;;;;;18.38;81.41;96090.84;5158514;57;20129;-73
2021/07/03 21:52:57;;;;;;;4.70;3.65;;;;;;;18.29;81.42;96083.53;5158625;57;20684;-73
2021/07/03 21:58:00;;;;;;;3.35;3.05;;;;;;;18.37;80.91;96081.69;5158307;57;20125;-71
2021/07/03 22:03:04;;;;;;;3.47;3.25;;;;;;;18.28;82.18;96098.78;5157649;57;20134;-73
2021/07/03 22:08:09;;;;;;;3.90;3.45;;;;;;;18.12;84.00;96082.88;5156305;57;20586;-73
2021/07/03 22:13:13;;;;;;;4.90;3.10;;;;;;;18.26;83.63;96086.59;5160618;57;20209;-74
2021/07/03 22:18:15;;;;;;;4.93;4.00;;;;;;;18.13;84.40;96090.00;5159936;57;20163;-72
2021/07/03 22:23:19;;;;;;;5.25;3.92;;;;;;;17.96;85.62;96080.19;5158522;57;20231;-72
2021/07/03 22:28:22;;;;;;;4.43;3.92;;;;;;;18.05;85.62;96080.63;5152829;57;20129;-73
2021/07/03 22:33:25;;;;;;;3.88;3.55;;;;;;;18.07;85.95;96077.31;5161987;57;20657;-73
2021/07/03 22:38:27;;;;;;;4.82;3.78;;;;;;;17.89;86.42;96076.66;5144823;57;20262;-72
2021/07/03 22:43:30;;;;;;;4.50;3.67;;;;;;;17.88;87.84;96071.59;5152719;57;20173;-72
2021/07/03 22:48:32;;;;;;;3.67;3.38;;;;;;;18.09;85.75;96069.91;5144494;57;20145;-73
2021/07/03 22:53:35;;;;;;;4.32;3.92;;;;;;;18.03;86.29;96079.63;5161397;57;20239;-72
2021/07/03 22:58:37;;;;;;;4.43;3.63;;;;;;;18.08;87.00;96079.59;5144219;57;20656;-72
2021/07/03 23:03:39;;;;;;;4.32;3.92;;;;;;;18.06;86.93;96082.16;5161294;57;20226;-73
2021/07/03 23:08:42;;;;;;;4.43;3.85;;;;;;;18.09;87.59;96075.50;5144003;57;20674;-73
2021/07/03 23:13:45;;;;;;;5.30;4.07;;;;;;;18.01;88.06;96077.34;5161077;57;20564;-75
2021/07/03 23:18:47;;;;;;;7.05;4.35;;;;;;;18.13;87.17;96078.03;5150384;57;20234;-73
2021/07/03 23:23:50;;;;;;;5.18;4.68;;;;;;;18.00;88.40;96080.66;5152564;57;20124;-72
2021/07/03 23:28:53;;;;;;;6.45;4.88;;;;;;;17.89;89.57;96089.84;5152415;57;20226;-72
2021/07/03 23:33:55;;;;;;;4.28;3.88;;;;;;;17.96;88.81;96080.94;5150974;57;20145;-73
2021/07/03 23:38:57;;;;;;;5.57;4.05;;;;;;;18.03;88.20;96088.78;5142706;57;20132;-72
2021/07/03 23:44:00;;;;;;;5.22;3.85;;;;;;;17.99;87.89;96091.09;5153420;57;20718;-72
2021/07/03 23:49:02;;;;;;;5.32;4.55;;;;;;;17.82;89.31;96070.84;5159661;57;20121;-72